createdAt,value
2019-05-21T00:00:52.518Z,22.17
2019-05-21T00:03:25.298Z,21.60
2019-05-21T00:05:57.393Z,21.93
2019-05-21T00:08:30.770Z,22.23
2019-05-21T00:11:02.757Z,22.43
2019-05-21T00:13:34.722Z,23.37
2019-05-21T00:16:06.696Z,23.17
2019-05-21T00:18:38.700Z,25.03
2019-05-21T00:21:10.746Z,25.73
2019-05-21T00:23:42.866Z,25.23
2019-05-21T00:26:14.960Z,25.97
2019-05-21T00:29:41.554Z,25.07
2019-05-21T00:33:08.040Z,24.67
2019-05-21T00:36:36.248Z,22.93
2019-05-21T00:40:02.648Z,24.60
2019-05-21T00:42:39.214Z,24.57
2019-05-21T00:45:12.946Z,24.23
2019-05-21T00:47:44.934Z,25.57
2019-05-21T00:50:17.071Z,26.10
2019-05-21T00:52:49.066Z,25.73
2019-05-21T00:55:21.022Z,25.33
2019-05-21T00:57:53.379Z,25.53
2019-05-21T01:00:25.332Z,25.27
2019-05-21T01:02:57.326Z,25.13
2019-05-21T01:05:29.442Z,25.10
2019-05-21T01:08:01.421Z,26.10
2019-05-21T01:10:33.863Z,25.70
2019-05-21T01:13:08.599Z,26.57
2019-05-21T01:15:42.260Z,26.03
2019-05-21T01:18:14.238Z,27.30
2019-05-21T01:20:46.214Z,27.07
2019-05-21T01:23:18.284Z,26.67
2019-05-21T01:25:56.784Z,26.77
2019-05-21T01:28:28.783Z,28.00
2019-05-21T01:31:00.926Z,27.80
2019-05-21T01:33:32.926Z,28.30
2019-05-21T01:36:05.039Z,29.90
2019-05-21T01:38:37.124Z,29.57
2019-05-21T01:41:09.170Z,30.77
2019-05-21T01:43:41.222Z,30.20
2019-05-21T01:46:13.460Z,31.83
2019-05-21T01:48:45.573Z,31.93
2019-05-21T01:51:17.531Z,30.93
2019-05-21T01:53:49.522Z,30.60
2019-05-21T01:56:21.583Z,32.77
2019-05-21T01:58:53.538Z,31.20
2019-05-21T02:01:25.845Z,32.33
2019-05-21T02:03:57.838Z,34.37
2019-05-21T02:06:29.871Z,33.13
2019-05-21T02:09:01.993Z,32.17
2019-05-21T02:11:34.047Z,31.30
2019-05-21T02:14:06.219Z,32.43
2019-05-21T02:16:38.593Z,32.80
2019-05-21T02:19:10.667Z,33.77
2019-05-21T02:21:42.642Z,34.03
2019-05-21T02:24:14.970Z,31.47
2019-05-21T02:26:47.329Z,32.93
2019-05-21T02:29:19.428Z,31.63
2019-05-21T02:31:51.482Z,32.63
2019-05-21T02:34:23.503Z,32.60
2019-05-21T02:36:55.619Z,32.87
2019-05-21T02:39:27.688Z,35.00
2019-05-21T02:41:59.716Z,37.80
2019-05-21T02:44:31.719Z,36.77
2019-05-21T02:47:03.799Z,39.03
2019-05-21T02:49:35.880Z,41.80
2019-05-21T02:52:07.868Z,39.73
2019-05-21T02:54:42.084Z,39.67
2019-05-21T02:57:14.201Z,38.97
2019-05-21T02:59:47.824Z,42.27
2019-05-21T03:02:24.109Z,39.57
2019-05-21T03:04:56.123Z,42.77
2019-05-21T03:07:28.059Z,39.93
2019-05-21T03:10:00.174Z,38.90
2019-05-21T03:12:32.162Z,40.03
2019-05-21T03:15:05.815Z,39.53
2019-05-21T03:17:37.784Z,36.83
2019-05-21T03:20:10.853Z,38.10
2019-05-21T03:22:42.979Z,40.13
2019-05-21T03:25:18.737Z,36.23
2019-05-21T03:27:50.672Z,37.70
2019-05-21T03:30:22.927Z,38.83
2019-05-21T03:32:54.958Z,39.33
2019-05-21T03:35:27.146Z,39.30
2019-05-21T03:37:59.376Z,38.33
2019-05-21T03:40:31.412Z,38.90
2019-05-21T03:43:03.662Z,40.50
2019-05-21T03:45:35.632Z,40.63
2019-05-21T03:48:14.204Z,39.43
2019-05-21T03:50:47.952Z,39.37
2019-05-21T03:53:19.979Z,41.23
2019-05-21T03:55:52.107Z,39.67
2019-05-21T03:58:24.169Z,42.37
2019-05-21T04:00:56.213Z,40.93
2019-05-21T04:03:28.223Z,38.47
2019-05-21T04:06:00.293Z,39.37
2019-05-21T04:08:32.305Z,41.60
2019-05-21T04:11:04.382Z,38.40
2019-05-21T04:13:36.430Z,40.97
2019-05-21T04:16:10.316Z,40.97
2019-05-21T04:18:44.377Z,39.93
2019-05-21T04:21:16.404Z,42.07
2019-05-21T04:23:49.045Z,41.10
2019-05-21T04:26:21.279Z,42.13
2019-05-21T04:28:53.293Z,40.17
2019-05-21T04:31:27.020Z,42.10
2019-05-21T04:33:59.326Z,41.43
2019-05-21T04:36:31.768Z,38.70
2019-05-21T04:39:05.116Z,40.60
2019-05-21T04:41:37.189Z,42.40
2019-05-21T04:44:09.338Z,44.50
2019-05-21T04:46:41.431Z,45.93
2019-05-21T04:49:13.440Z,44.17
2019-05-21T04:51:45.458Z,43.30
2019-05-21T04:54:17.502Z,43.20
2019-05-21T04:56:49.521Z,44.13
2019-05-21T04:59:21.730Z,45.43
2019-05-21T05:01:53.788Z,43.57
2019-05-21T05:04:25.738Z,39.33
2019-05-21T05:06:57.815Z,41.47
2019-05-21T05:09:29.776Z,44.43
2019-05-21T05:12:01.910Z,44.87
2019-05-21T05:14:34.086Z,48.00
2019-05-21T05:17:06.049Z,43.93
2019-05-21T05:19:38.059Z,47.87
2019-05-21T05:22:10.202Z,46.33
2019-05-21T05:24:42.178Z,43.67
2019-05-21T05:27:14.330Z,42.80
2019-05-21T05:29:46.638Z,46.57
2019-05-21T05:32:18.605Z,42.93
2019-05-21T05:34:50.594Z,43.53
2019-05-21T05:37:23.072Z,40.87
2019-05-21T05:39:55.274Z,39.17
2019-05-21T05:42:27.313Z,37.03
2019-05-21T05:44:59.282Z,34.37
2019-05-21T05:47:31.263Z,37.10
2019-05-21T05:50:06.063Z,34.80
2019-05-21T05:52:38.215Z,34.33
2019-05-21T05:55:10.320Z,34.03
2019-05-21T05:57:42.806Z,30.93
2019-05-21T06:00:16.041Z,32.13
2019-05-21T06:02:48.104Z,30.90
2019-05-21T06:05:21.605Z,32.23
2019-05-21T06:07:59.788Z,27.93
2019-05-21T06:10:27.559Z,27.43
2019-05-21T06:12:59.518Z,26.90
2019-05-21T06:15:31.722Z,29.97
2019-05-21T06:18:03.727Z,27.73
2019-05-21T06:20:35.736Z,26.83
2019-05-21T06:23:07.994Z,24.27
2019-05-21T06:25:40.056Z,24.57
2019-05-21T06:28:12.101Z,22.67
2019-05-21T06:30:44.133Z,25.87
2019-05-21T06:33:16.110Z,28.93
2019-05-21T06:35:48.152Z,29.90
2019-05-21T06:38:20.467Z,27.73
2019-05-21T06:40:52.500Z,29.10
2019-05-21T06:43:24.745Z,27.20
2019-05-21T06:45:56.799Z,30.30
2019-05-21T06:48:33.388Z,27.33
2019-05-21T06:51:05.655Z,29.40
2019-05-21T06:53:37.630Z,29.10
2019-05-21T06:56:09.616Z,28.60
2019-05-21T06:58:41.931Z,27.73
2019-05-21T07:01:13.977Z,28.73
2019-05-21T07:03:46.095Z,27.10
2019-05-21T07:06:18.046Z,27.20
2019-05-21T07:08:50.089Z,27.97
2019-05-21T07:11:22.054Z,26.37
2019-05-21T07:13:54.041Z,26.10
2019-05-21T07:16:26.377Z,26.17
2019-05-21T07:18:58.363Z,26.07
2019-05-21T07:21:30.478Z,27.27
2019-05-21T07:24:02.680Z,25.87
2019-05-21T07:26:35.272Z,26.70
2019-05-21T07:29:13.916Z,25.87
2019-05-21T07:32:09.011Z,24.97
2019-05-21T07:34:38.871Z,27.23
2019-05-21T07:37:21.568Z,23.93
2019-05-21T07:39:57.641Z,26.37
2019-05-21T07:42:31.650Z,25.77
2019-05-21T07:45:09.339Z,25.43
2019-05-21T07:47:41.641Z,23.90
2019-05-21T07:50:18.969Z,26.43
2019-05-21T07:52:51.044Z,25.53
2019-05-21T07:55:24.430Z,25.80
2019-05-21T07:57:56.583Z,24.83
2019-05-21T08:00:28.660Z,25.90
2019-05-21T08:03:00.657Z,23.57
2019-05-21T08:05:33.214Z,22.03
2019-05-21T08:08:08.729Z,21.60
2019-05-21T08:10:41.358Z,24.07
2019-05-21T08:13:15.978Z,22.60
2019-05-21T08:15:49.965Z,23.97
2019-05-21T08:18:23.898Z,22.23
2019-05-21T08:20:58.337Z,21.67
2019-05-21T08:23:33.336Z,21.73
2019-05-21T08:26:08.269Z,22.67
2019-05-21T08:28:40.668Z,22.47
2019-05-21T08:31:12.810Z,22.07
2019-05-21T08:33:45.367Z,22.73
2019-05-21T08:36:24.599Z,22.13
2019-05-21T08:38:59.627Z,20.30
2019-05-21T08:41:36.412Z,23.37
2019-05-21T08:44:12.379Z,22.23
2019-05-21T08:46:46.558Z,21.13
2019-05-21T08:49:18.663Z,21.30
2019-05-21T08:51:54.651Z,21.67
2019-05-21T08:54:45.702Z,22.30
2019-05-21T08:57:19.074Z,22.07
2019-05-21T08:59:51.422Z,22.20
2019-05-21T09:02:29.470Z,23.10
2019-05-21T09:05:01.566Z,22.93
2019-05-21T09:07:33.756Z,22.97
2019-05-21T09:10:09.069Z,22.97
2019-05-21T09:12:41.176Z,23.07
2019-05-21T09:15:16.721Z,25.27
2019-05-21T09:17:48.698Z,23.30
2019-05-21T09:20:22.397Z,24.03
2019-05-21T09:22:54.372Z,24.83
2019-05-21T09:25:26.538Z,25.83
2019-05-21T09:27:58.632Z,25.13
2019-05-21T09:30:33.348Z,24.70
2019-05-21T09:33:05.467Z,24.27
2019-05-21T09:35:39.205Z,25.13
2019-05-21T09:38:11.600Z,25.87
2019-05-21T09:40:43.688Z,26.03
2019-05-21T09:43:17.433Z,24.53
2019-05-21T09:45:49.521Z,25.60
2019-05-21T09:48:21.593Z,25.17
2019-05-21T09:50:53.835Z,26.43
2019-05-21T09:53:26.038Z,25.10
2019-05-21T09:56:00.134Z,25.30
2019-05-21T09:58:33.957Z,26.13
2019-05-21T10:01:13.941Z,26.73
2019-05-21T10:03:47.656Z,27.63
2019-05-21T10:06:19.971Z,26.47
2019-05-21T10:08:52.524Z,27.97
2019-05-21T10:11:25.031Z,27.03
2019-05-21T10:13:57.287Z,25.63
2019-05-21T10:16:29.450Z,26.20
2019-05-21T10:19:01.911Z,23.90
2019-05-21T10:21:34.205Z,23.27
2019-05-21T10:24:07.977Z,21.77
2019-05-21T10:26:40.328Z,23.80
2019-05-21T10:29:12.863Z,22.20
2019-05-21T10:31:44.876Z,23.50
2019-05-21T10:34:16.962Z,20.47
2019-05-21T10:36:49.064Z,21.03
2019-05-21T10:39:21.576Z,20.07
2019-05-21T10:41:53.782Z,19.67
2019-05-21T10:44:26.060Z,19.97
2019-05-21T10:46:58.335Z,20.37
2019-05-21T10:49:30.606Z,20.23
2019-05-21T10:52:04.035Z,20.93
2019-05-21T10:54:36.099Z,20.00
2019-05-21T10:57:08.216Z,19.70
2019-05-21T10:59:40.223Z,21.50
2019-05-21T11:02:13.978Z,21.13
2019-05-21T11:04:50.348Z,18.73
2019-05-21T11:07:23.115Z,20.00
2019-05-21T11:09:55.701Z,20.10
2019-05-21T11:12:27.735Z,20.30
2019-05-21T11:14:59.767Z,19.60
2019-05-21T11:17:48.065Z,19.77
2019-05-21T11:20:07.189Z,18.70
2019-05-21T11:22:39.613Z,19.40
2019-05-21T11:25:12.090Z,19.27
2019-05-21T11:27:47.538Z,19.77
2019-05-21T11:30:22.963Z,19.57
2019-05-21T11:32:58.267Z,20.43
2019-05-21T11:35:40.407Z,21.77
2019-05-21T11:38:12.577Z,21.17
2019-05-21T11:40:50.196Z,24.67
2019-05-21T11:43:18.856Z,24.10
2019-05-21T11:45:51.118Z,24.90
2019-05-21T11:48:24.432Z,25.37
2019-05-21T11:50:58.117Z,25.17
2019-05-21T11:53:32.036Z,26.47
2019-05-21T11:56:04.600Z,25.93
2019-05-21T11:58:39.718Z,26.13
2019-05-21T12:01:11.292Z,29.93
2019-05-21T12:03:43.511Z,30.23
2019-05-21T12:06:15.721Z,29.37
2019-05-21T12:08:56.156Z,30.33
2019-05-21T12:11:21.687Z,30.53
2019-05-21T12:13:53.767Z,30.57
2019-05-21T12:16:26.005Z,31.17
2019-05-21T12:18:58.162Z,32.20
2019-05-21T12:21:30.215Z,29.63
2019-05-21T12:24:03.863Z,30.17
2019-05-21T12:26:35.823Z,29.80
2019-05-21T12:29:09.779Z,31.07
2019-05-21T12:31:41.850Z,29.80
2019-05-21T12:34:14.358Z,31.33
2019-05-21T12:36:46.364Z,30.03
2019-05-21T12:39:18.897Z,29.77
2019-05-21T12:41:50.911Z,31.30
2019-05-21T12:44:23.078Z,29.13
2019-05-21T12:46:55.241Z,28.40
2019-05-21T12:49:27.351Z,28.50
2019-05-21T12:51:59.533Z,27.93
2019-05-21T12:54:31.595Z,28.80
2019-05-21T12:57:04.741Z,28.43
2019-05-21T12:59:36.747Z,27.83
2019-05-21T13:02:11.869Z,30.23
2019-05-21T13:04:45.065Z,27.33
2019-05-21T13:07:17.278Z,26.13
2019-05-21T13:09:49.501Z,24.70
2019-05-21T13:12:23.662Z,25.60
2019-05-21T13:14:55.814Z,28.20
2019-05-21T13:17:27.973Z,27.37
2019-05-21T13:20:02.700Z,25.43
2019-05-21T13:22:36.008Z,24.33
2019-05-21T13:25:09.672Z,24.67
2019-05-21T13:27:41.727Z,20.67
2019-05-21T13:30:14.466Z,19.63
2019-05-21T13:32:46.456Z,19.93
2019-05-21T13:35:18.505Z,19.87
2019-05-21T13:37:50.683Z,17.97
2019-05-21T13:40:25.346Z,17.37
2019-05-21T13:42:57.699Z,17.83
2019-05-21T13:45:29.685Z,18.73
2019-05-21T13:48:01.760Z,18.30
2019-05-21T13:50:34.702Z,19.07
2019-05-21T13:53:07.075Z,18.80
2019-05-21T13:55:40.172Z,18.37
2019-05-21T13:58:13.499Z,17.50
2019-05-21T14:01:08.423Z,18.80
2019-05-21T14:03:36.439Z,18.10
2019-05-21T14:06:11.775Z,20.83
2019-05-21T14:08:44.694Z,20.23
2019-05-21T14:11:17.421Z,20.13
2019-05-21T14:13:49.513Z,19.20
2019-05-21T14:16:21.858Z,19.53
2019-05-21T14:18:54.144Z,17.03
2019-05-21T14:21:26.326Z,17.33
2019-05-21T14:23:58.482Z,17.80
2019-05-21T14:26:30.644Z,15.97
2019-05-21T14:29:02.604Z,16.70
2019-05-21T14:31:35.579Z,16.57
2019-05-21T14:34:07.851Z,17.13
2019-05-21T14:36:39.934Z,18.13
2019-05-21T14:39:18.076Z,18.13
2019-05-21T14:41:50.195Z,18.40
2019-05-21T14:44:22.285Z,18.83
2019-05-21T14:46:57.327Z,17.57
2019-05-21T14:49:32.136Z,15.37
2019-05-21T14:52:05.630Z,14.93
2019-05-21T14:54:37.815Z,16.07
2019-05-21T14:57:12.622Z,12.60
2019-05-21T14:59:44.742Z,11.53
2019-05-21T15:02:16.848Z,10.67
2019-05-21T15:04:49.101Z,10.13
2019-05-21T15:07:21.423Z,9.53
2019-05-21T15:09:53.839Z,9.67
2019-05-21T15:12:25.951Z,9.17
2019-05-21T15:14:58.078Z,10.10
2019-05-21T15:17:30.200Z,9.30
2019-05-21T15:20:03.884Z,8.93
2019-05-21T15:22:37.601Z,7.13
2019-05-21T15:25:09.834Z,7.00
2019-05-21T15:27:41.819Z,8.03
2019-05-21T15:30:18.688Z,8.60
2019-05-21T15:33:47.285Z,9.10
2019-05-21T15:36:23.023Z,9.57
2019-05-21T15:42:33.397Z,9.50
2019-05-21T15:45:08.026Z,8.77
2019-05-21T15:47:40.486Z,9.43
2019-05-21T15:50:13.259Z,8.97
2019-05-21T15:52:45.645Z,9.23
2019-05-21T15:55:20.466Z,9.87
2019-05-21T15:57:53.054Z,8.97
2019-05-21T16:00:25.687Z,8.90
2019-05-21T16:02:57.786Z,9.80
2019-05-21T16:05:30.395Z,8.90
2019-05-21T16:08:06.672Z,8.43
2019-05-21T16:10:38.276Z,7.87
2019-05-21T16:13:11.874Z,8.83
2019-05-21T16:15:44.184Z,8.53
2019-05-21T16:18:18.066Z,9.10
2019-05-21T16:20:50.062Z,8.70
2019-05-21T16:23:24.873Z,8.73
2019-05-21T16:25:56.914Z,8.77
2019-05-21T16:28:28.905Z,9.23
2019-05-21T16:31:01.162Z,9.30
2019-05-21T16:33:34.050Z,9.90
2019-05-21T16:36:06.704Z,8.70
2019-05-21T16:38:38.833Z,9.37
2019-05-21T16:41:10.909Z,9.60
2019-05-21T16:43:43.056Z,9.10
2019-05-21T16:46:15.236Z,9.93
2019-05-21T16:48:47.219Z,9.17
2019-05-21T16:51:19.572Z,9.57
2019-05-21T16:53:51.571Z,11.03
2019-05-21T16:56:26.987Z,8.20
2019-05-21T16:58:59.763Z,8.30
2019-05-21T17:01:31.932Z,7.87
2019-05-21T17:04:04.038Z,8.43
2019-05-21T17:06:36.273Z,8.33
2019-05-21T17:09:13.502Z,7.97
2019-05-21T17:11:59.035Z,8.30
2019-05-21T17:14:19.361Z,9.17
2019-05-21T17:16:51.881Z,9.47
2019-05-21T17:19:24.872Z,10.63
2019-05-21T17:21:56.871Z,9.33
2019-05-21T17:24:28.962Z,9.30
2019-05-21T17:27:00.955Z,9.43
2019-05-21T17:29:32.951Z,9.10
2019-05-21T17:32:06.634Z,9.77
2019-05-21T17:34:39.202Z,9.63
2019-05-21T17:37:11.311Z,10.53
2019-05-21T17:39:43.257Z,11.07
2019-05-21T17:42:16.123Z,10.60
2019-05-21T17:44:48.185Z,10.00
2019-05-21T17:47:20.338Z,10.60
2019-05-21T17:49:52.462Z,9.33
2019-05-21T17:52:24.606Z,9.77
2019-05-21T17:54:57.316Z,10.20
2019-05-21T17:57:31.130Z,9.57
2019-05-21T18:00:04.961Z,8.93
2019-05-21T18:02:37.040Z,9.53
2019-05-21T18:05:09.724Z,9.33
2019-05-21T18:07:42.735Z,9.00
2019-05-21T18:10:16.577Z,9.40
2019-05-21T18:12:48.689Z,10.60
2019-05-21T18:15:21.499Z,9.13
2019-05-21T18:17:53.649Z,9.77
2019-05-21T18:20:25.967Z,9.50
2019-05-21T18:22:58.436Z,9.83
2019-05-21T18:25:31.440Z,9.67
2019-05-21T18:28:03.442Z,9.97
2019-05-21T18:30:35.624Z,10.33
2019-05-21T18:33:08.004Z,10.37
2019-05-21T18:35:40.357Z,10.33
2019-05-21T18:38:12.488Z,10.80
2019-05-21T18:40:44.802Z,11.33
2019-05-21T18:43:16.826Z,11.00
2019-05-21T18:45:48.811Z,12.30
2019-05-21T18:48:21.193Z,11.23
2019-05-21T18:50:54.036Z,12.07
2019-05-21T18:53:27.941Z,12.77
2019-05-21T18:56:00.846Z,12.60
2019-05-21T18:58:34.685Z,11.97
2019-05-21T19:01:10.784Z,11.93
2019-05-21T19:03:43.309Z,12.17
2019-05-21T19:06:15.365Z,12.37
2019-05-21T19:08:47.428Z,12.33
2019-05-21T19:11:19.479Z,11.10
2019-05-21T19:13:52.166Z,11.03
2019-05-21T19:16:24.221Z,10.27
2019-05-21T19:18:56.207Z,9.83
2019-05-21T19:21:28.366Z,10.13
2019-05-21T19:24:00.554Z,10.30
2019-05-21T19:26:32.675Z,10.93
2019-05-21T19:29:07.783Z,10.50
2019-05-21T19:31:39.598Z,11.00
2019-05-21T19:34:11.554Z,11.17
2019-05-21T19:36:43.603Z,12.37
2019-05-21T19:39:15.713Z,11.90
2019-05-21T19:41:48.256Z,11.90
2019-05-21T19:44:20.301Z,12.93
2019-05-21T19:46:52.271Z,13.53
2019-05-21T19:49:24.669Z,19.42
2019-05-21T19:51:56.645Z,17.73
2019-05-21T19:54:30.336Z,17.53
2019-05-21T19:57:02.485Z,19.43
2019-05-21T19:59:34.652Z,20.30
2019-05-21T20:02:08.570Z,19.47
2019-05-21T20:04:41.261Z,21.67
2019-05-21T20:07:17.293Z,33.50
2019-05-21T20:09:50.809Z,22.93
2019-05-21T20:12:23.826Z,22.60
2019-05-21T20:14:58.095Z,24.77
2019-05-21T20:17:31.300Z,26.77
2019-05-21T20:20:05.617Z,25.40
2019-05-21T20:22:37.999Z,25.37
2019-05-21T20:25:11.677Z,25.43
2019-05-21T20:27:45.702Z,25.40
2019-05-21T20:30:25.440Z,27.00
2019-05-21T20:32:57.776Z,26.40
2019-05-21T20:35:31.364Z,26.60
2019-05-21T20:38:10.543Z,27.20
2019-05-21T20:40:43.871Z,28.57
2019-05-21T20:43:16.426Z,29.63
2019-05-21T20:45:50.282Z,28.60
2019-05-21T20:48:24.033Z,28.70
2019-05-21T20:50:56.361Z,28.93
2019-05-21T20:53:28.889Z,29.80
2019-05-21T20:56:04.685Z,29.83
2019-05-21T20:58:41.573Z,30.23
2019-05-21T21:01:18.518Z,30.07
2019-05-21T21:03:52.507Z,34.07
2019-05-21T21:06:34.767Z,31.63
2019-05-21T21:08:59.076Z,29.33
2019-05-21T21:11:32.191Z,29.27
2019-05-21T21:14:17.431Z,29.83
2019-05-21T21:16:44.265Z,28.60
2019-05-21T21:19:16.351Z,29.20
2019-05-21T21:21:49.294Z,30.03
2019-05-21T21:24:21.644Z,31.37
2019-05-21T21:26:54.526Z,29.60
2019-05-21T21:29:26.633Z,29.73
2019-05-21T21:31:59.103Z,29.93
2019-05-21T21:34:31.142Z,31.70
2019-05-21T21:37:04.880Z,30.83
2019-05-21T21:39:37.914Z,31.33
2019-05-21T21:42:10.359Z,31.53
2019-05-21T21:44:42.819Z,32.37
2019-05-21T21:47:17.044Z,29.93
2019-05-21T21:49:49.955Z,30.07
2019-05-21T21:52:21.998Z,31.90
2019-05-21T21:54:55.457Z,31.07
2019-05-21T21:57:27.510Z,31.03
2019-05-21T21:59:59.454Z,32.63
2019-05-21T22:02:34.821Z,33.30
2019-05-21T22:05:09.467Z,33.53
2019-05-21T22:07:41.520Z,33.70
2019-05-21T22:10:13.775Z,32.13
2019-05-21T22:12:46.265Z,33.07
2019-05-21T22:15:18.383Z,34.37
2019-05-21T22:17:50.350Z,33.23
2019-05-21T22:20:22.876Z,33.80
2019-05-21T22:22:55.198Z,31.27
2019-05-21T22:25:27.802Z,31.80
2019-05-21T22:27:59.808Z,32.60
2019-05-21T22:30:32.497Z,32.03
2019-05-21T22:33:04.837Z,31.93
2019-05-21T22:35:36.980Z,29.63
2019-05-21T22:38:08.975Z,30.83
2019-05-21T22:40:41.255Z,29.80
2019-05-21T22:43:13.404Z,30.37
2019-05-21T22:45:45.505Z,29.10
2019-05-21T22:48:17.616Z,28.50
2019-05-21T22:50:49.867Z,27.10
2019-05-21T22:53:22.547Z,26.80
2019-05-21T22:55:54.934Z,25.27
2019-05-21T22:58:26.935Z,22.37
2019-05-21T23:01:00.570Z,20.97
2019-05-21T23:03:32.536Z,20.27
2019-05-21T23:06:04.913Z,18.50
2019-05-21T23:08:38.316Z,17.40
2019-05-21T23:11:10.575Z,17.10
2019-05-21T23:13:42.619Z,18.90
2019-05-21T23:16:15.237Z,18.33
2019-05-21T23:18:48.228Z,19.83
2019-05-21T23:21:20.552Z,22.43
2019-05-21T23:23:54.091Z,23.40
2019-05-21T23:26:26.658Z,22.73
2019-05-21T23:29:00.593Z,22.33
2019-05-21T23:31:33.046Z,20.70
2019-05-21T23:34:05.359Z,20.83
2019-05-21T23:36:37.520Z,21.67
2019-05-21T23:39:11.302Z,21.97
2019-05-21T23:41:45.281Z,22.50
2019-05-21T23:44:17.769Z,24.03
2019-05-21T23:46:49.908Z,24.00
2019-05-21T23:49:22.200Z,25.00
2019-05-21T23:51:54.562Z,24.10
2019-05-21T23:54:26.555Z,22.83
2019-05-21T23:56:59.462Z,22.10
2019-05-21T23:59:31.970Z,20.70
